Time;durP1;ratioP1;P1;durP2;ratioP2;P2;SDS_P1;SDS_P2;PMS_P1;PMS_P2;Temp;Humidity;BMP_temperature;BMP_pressure;BME280_temperature;BME280_humidity;BME280_pressure;Samples;Min_cycle;Max_cycle;Signal;HPM_P1;HPM_P2
2021/05/07 00:00:37;;;;;;;13.40;11.10;;;;;;;;;;5037051;28;20544;-69
2021/05/07 00:03:02;;;;;;;15.23;10.73;;;;;;;;;;5044590;28;20209;-69
2021/05/07 00:05:27;;;;;;;14.27;10.07;;;;;;;;;;5029522;28;20216;-70
2021/05/07 00:07:53;;;;;;;13.00;9.20;;;;;;;;;;5040080;28;20190;-69
2021/05/07 00:10:19;;;;;;;11.77;8.23;;;;;;;;;;5031404;28;20203;-69
2021/05/07 00:12:45;;;;;;;12.37;9.03;;;;;;;;;;5040555;28;20649;-69
2021/05/07 00:15:11;;;;;;;11.77;8.80;;;;;;;;;;5030773;28;20231;-69
2021/05/07 00:17:37;;;;;;;11.50;8.23;;;;;;;;;;5044016;28;20216;-70
2021/05/07 00:20:04;;;;;;;11.60;9.13;;;;;;;;;;5033156;28;20216;-69
2021/05/07 00:22:29;;;;;;;12.13;9.37;;;;;;;;;;5038965;28;20548;-70
2021/05/07 00:24:55;;;;;;;13.37;9.47;;;;;;;;;;5030880;28;20186;-70
2021/05/07 00:27:20;;;;;;;13.23;10.27;;;;;;;;;;5042220;28;20193;-69
2021/05/07 00:29:49;;;;;;;18.30;11.67;;;;;;;;;;5033740;28;20182;-69
2021/05/07 00:32:14;;;;;;;15.93;11.80;;;;;;;;;;5030766;28;20766;-69
2021/05/07 00:34:40;;;;;;;17.63;12.50;;;;;;;;;;5038002;28;20317;-69
2021/05/07 00:37:05;;;;;;;18.93;11.90;;;;;;;;;;5031877;28;20191;-70
2021/05/07 00:39:31;;;;;;;16.40;11.73;;;;;;;;;;5039497;28;20250;-69
2021/05/07 00:42:03;;;;;;;15.47;11.40;;;;;;;;;;5029847;28;20236;-69
2021/05/07 00:44:35;;;;;;;14.73;11.27;;;;;;;;;;5038165;28;20193;-69
2021/05/07 00:47:06;;;;;;;16.73;11.80;;;;;;;;;;5044415;28;20727;-70
2021/05/07 00:49:37;;;;;;;17.67;12.27;;;;;;;;;;5034955;28;20642;-69
2021/05/07 00:52:04;;;;;;;15.97;12.10;;;;;;;;;;5027004;28;20656;-70
2021/05/07 00:54:31;;;;;;;17.40;12.17;;;;;;;;;;5022634;28;20193;-70
2021/05/07 00:56:56;;;;;;;14.37;11.73;;;;;;;;;;5036754;28;20560;-69
2021/05/07 00:59:22;;;;;;;16.90;11.97;;;;;;;;;;5037059;28;20184;-69
2021/05/07 01:01:48;;;;;;;15.60;12.27;;;;;;;;;;5030697;28;20765;-69
2021/05/07 01:04:15;;;;;;;17.07;11.83;;;;;;;;;;5036279;28;20669;-70
2021/05/07 01:06:40;;;;;;;16.13;11.57;;;;;;;;;;5027583;28;20197;-70
2021/05/07 01:09:05;;;;;;;15.67;12.03;;;;;;;;;;5037668;28;20186;-69
2021/05/07 01:11:32;;;;;;;19.70;12.50;;;;;;;;;;5042697;28;20189;-70
2021/05/07 01:13:58;;;;;;;17.57;11.83;;;;;;;;;;5030700;28;20224;-69
2021/05/07 01:16:23;;;;;;;16.67;11.77;;;;;;;;;;5038683;28;20180;-69
2021/05/07 01:18:49;;;;;;;17.00;11.83;;;;;;;;;;5027609;28;20194;-70
2021/05/07 01:21:14;;;;;;;19.33;12.60;;;;;;;;;;5036332;28;20182;-70
2021/05/07 01:23:39;;;;;;;17.90;12.00;;;;;;;;;;5032354;28;20208;-70
2021/05/07 01:26:05;;;;;;;17.30;12.53;;;;;;;;;;5036379;28;20185;-70
2021/05/07 01:28:33;;;;;;;19.67;12.57;;;;;;;;;;5034495;28;20205;-70
2021/05/07 01:30:58;;;;;;;17.80;12.80;;;;;;;;;;5038664;28;20184;-70
2021/05/07 01:33:23;;;;;;;16.53;11.97;;;;;;;;;;5034288;28;20194;-69
2021/05/07 01:35:53;;;;;;;21.10;13.60;;;;;;;;;;5035548;28;20264;-69
2021/05/07 01:38:19;;;;;;;19.10;13.17;;;;;;;;;;5025745;28;20243;-69
2021/05/07 01:40:49;;;;;;;21.80;14.90;;;;;;;;;;5039278;28;20229;-69
2021/05/07 01:43:15;;;;;;;17.90;13.30;;;;;;;;;;5037172;28;20212;-69
2021/05/07 01:45:43;;;;;;;22.60;14.70;;;;;;;;;;5035439;28;20182;-69
2021/05/07 01:48:09;;;;;;;21.53;14.70;;;;;;;;;;5040192;28;20746;-69
2021/05/07 01:50:40;;;;;;;19.97;14.23;;;;;;;;;;5034168;28;20253;-69
2021/05/07 01:53:06;;;;;;;24.10;14.63;;;;;;;;;;5042198;28;20636;-69
2021/05/07 01:55:35;;;;;;;20.67;14.53;;;;;;;;;;5028587;28;20201;-69
2021/05/07 01:58:02;;;;;;;20.43;14.77;;;;;;;;;;5040487;28;20661;-69
2021/05/07 02:00:29;;;;;;;25.27;16.50;;;;;;;;;;5029585;28;20301;-69
2021/05/07 02:02:56;;;;;;;24.03;14.90;;;;;;;;;;5035891;28;20780;-69
2021/05/07 02:05:23;;;;;;;22.80;15.17;;;;;;;;;;5031108;28;20194;-69
2021/05/07 02:07:50;;;;;;;22.37;15.33;;;;;;;;;;5039058;28;20217;-69
2021/05/07 02:10:18;;;;;;;23.17;15.23;;;;;;;;;;5028459;28;20600;-69
2021/05/07 02:12:43;;;;;;;21.73;13.77;;;;;;;;;;5042598;28;20554;-69
2021/05/07 02:15:12;;;;;;;22.33;14.87;;;;;;;;;;5027147;28;20460;-69
2021/05/07 02:17:37;;;;;;;23.10;15.17;;;;;;;;;;5038917;28;20228;-69
2021/05/07 02:20:05;;;;;;;22.30;15.20;;;;;;;;;;5033624;28;20216;-69
2021/05/07 02:22:30;;;;;;;22.47;14.90;;;;;;;;;;5047549;28;20217;-69
2021/05/07 02:24:56;;;;;;;20.73;15.33;;;;;;;;;;5043565;28;20613;-69
2021/05/07 02:27:21;;;;;;;21.53;15.57;;;;;;;;;;5037442;28;20217;-69
2021/05/07 02:29:47;;;;;;;24.20;15.77;;;;;;;;;;5036452;28;20201;-69
2021/05/07 02:32:12;;;;;;;22.90;14.90;;;;;;;;;;5041068;28;20754;-69
2021/05/07 02:34:37;;;;;;;22.37;14.90;;;;;;;;;;5039340;28;20197;-69
2021/05/07 02:37:03;;;;;;;25.97;16.60;;;;;;;;;;5038888;28;21470;-69
2021/05/07 02:39:28;;;;;;;22.20;15.57;;;;;;;;;;5041631;28;20190;-69
2021/05/07 02:41:53;;;;;;;20.83;15.10;;;;;;;;;;5036822;28;20225;-69
2021/05/07 02:44:19;;;;;;;23.30;15.83;;;;;;;;;;5041126;28;20326;-69
2021/05/07 02:46:44;;;;;;;23.93;17.20;;;;;;;;;;5028026;28;20197;-69
2021/05/07 02:49:09;;;;;;;22.50;15.53;;;;;;;;;;5043058;28;20239;-69
2021/05/07 02:51:35;;;;;;;29.83;17.03;;;;;;;;;;5037542;28;20201;-69
2021/05/07 02:54:01;;;;;;;23.00;16.63;;;;;;;;;;5034148;28;20185;-69
2021/05/07 02:56:27;;;;;;;24.73;15.90;;;;;;;;;;5048484;28;20521;-69
2021/05/07 02:58:52;;;;;;;26.33;17.30;;;;;;;;;;5034230;28;20194;-69
2021/05/07 03:01:18;;;;;;;27.27;18.23;;;;;;;;;;5038717;28;20189;-69
2021/05/07 03:03:44;;;;;;;27.10;16.83;;;;;;;;;;5035761;28;20248;-68
2021/05/07 03:06:09;;;;;;;23.97;16.03;;;;;;;;;;5035602;28;20264;-68
2021/05/07 03:08:35;;;;;;;27.50;17.50;;;;;;;;;;5033684;28;20196;-69
2021/05/07 03:11:00;;;;;;;24.37;16.23;;;;;;;;;;5041009;28;20264;-72
2021/05/07 03:13:26;;;;;;;26.53;17.40;;;;;;;;;;5032783;28;20648;-69
2021/05/07 03:15:51;;;;;;;25.73;16.40;;;;;;;;;;5038399;28;20208;-69
2021/05/07 03:18:20;;;;;;;23.57;16.50;;;;;;;;;;5033114;28;20225;-69
2021/05/07 03:20:46;;;;;;;25.27;16.70;;;;;;;;;;5044331;28;20181;-69
2021/05/07 03:23:13;;;;;;;22.13;14.70;;;;;;;;;;5031656;28;20229;-69
2021/05/07 03:25:39;;;;;;;26.23;16.43;;;;;;;;;;5036166;28;20234;-69
2021/05/07 03:28:05;;;;;;;23.87;16.03;;;;;;;;;;5042584;28;20186;-69
2021/05/07 03:30:34;;;;;;;22.97;15.83;;;;;;;;;;5033027;28;20229;-69
2021/05/07 03:33:00;;;;;;;21.57;14.97;;;;;;;;;;5041117;28;20289;-69
2021/05/07 03:35:26;;;;;;;24.20;15.63;;;;;;;;;;5025408;28;20243;-69
2021/05/07 03:37:51;;;;;;;24.97;15.57;;;;;;;;;;5039796;28;20201;-69
2021/05/07 03:40:17;;;;;;;26.23;16.57;;;;;;;;;;5031997;28;20272;-69
2021/05/07 03:42:44;;;;;;;25.37;15.70;;;;;;;;;;5040367;28;20225;-69
2021/05/07 03:45:10;;;;;;;21.53;15.20;;;;;;;;;;5039389;28;20209;-69
2021/05/07 03:47:36;;;;;;;23.13;14.87;;;;;;;;;;5039758;28;20604;-69
2021/05/07 03:50:01;;;;;;;19.73;14.53;;;;;;;;;;5031347;28;20200;-69
2021/05/07 03:52:26;;;;;;;25.17;14.57;;;;;;;;;;5043475;28;20190;-69
2021/05/07 03:54:52;;;;;;;21.20;14.77;;;;;;;;;;5031008;28;20188;-69
2021/05/07 03:57:19;;;;;;;22.47;15.33;;;;;;;;;;5043548;28;20193;-69
2021/05/07 03:59:44;;;;;;;21.00;14.13;;;;;;;;;;5036874;28;20238;-69
2021/05/07 04:02:10;;;;;;;19.67;13.63;;;;;;;;;;5033871;28;20666;-69
2021/05/07 04:04:37;;;;;;;21.87;14.83;;;;;;;;;;5033876;28;20186;-69
2021/05/07 04:07:02;;;;;;;22.80;13.67;;;;;;;;;;5033542;28;20199;-69
2021/05/07 04:09:40;;;;;;;18.47;13.67;;;;;;;;;;5041730;28;20200;-69
2021/05/07 04:12:20;;;;;;;22.07;14.03;;;;;;;;;;5034728;28;20193;-69
2021/05/07 04:14:45;;;;;;;21.57;13.03;;;;;;;;;;5040978;28;20170;-70
2021/05/07 04:17:11;;;;;;;19.63;13.57;;;;;;;;;;5027654;28;20190;-69
2021/05/07 04:19:36;;;;;;;20.77;14.07;;;;;;;;;;5042568;28;20196;-70
2021/05/07 04:22:02;;;;;;;18.83;13.37;;;;;;;;;;5032140;28;20197;-69
2021/05/07 04:24:27;;;;;;;19.43;12.63;;;;;;;;;;5034804;28;20190;-70
2021/05/07 04:26:54;;;;;;;17.33;12.27;;;;;;;;;;5034939;28;20654;-69
2021/05/07 04:29:23;;;;;;;18.23;13.30;;;;;;;;;;5037839;28;20172;-69
2021/05/07 04:31:49;;;;;;;18.97;12.33;;;;;;;;;;5031553;28;20189;-69
2021/05/07 04:34:15;;;;;;;17.57;12.37;;;;;;;;;;5033236;28;20193;-70
2021/05/07 04:36:40;;;;;;;15.73;11.60;;;;;;;;;;5047332;28;20217;-70
2021/05/07 04:39:06;;;;;;;15.77;11.70;;;;;;;;;;5027725;28;20189;-69
2021/05/07 04:41:31;;;;;;;17.47;12.00;;;;;;;;;;5038933;28;20258;-69
2021/05/07 04:43:57;;;;;;;19.90;12.37;;;;;;;;;;5031415;28;20757;-68
2021/05/07 04:46:22;;;;;;;16.63;12.17;;;;;;;;;;5034355;28;20671;-69
2021/05/07 04:48:47;;;;;;;18.57;12.30;;;;;;;;;;5033389;28;20667;-69
2021/05/07 04:51:13;;;;;;;19.33;13.00;;;;;;;;;;5032918;28;20192;-69
2021/05/07 04:53:38;;;;;;;15.27;11.13;;;;;;;;;;5029347;28;20544;-69
2021/05/07 04:56:03;;;;;;;17.50;11.93;;;;;;;;;;5034901;28;20562;-69
2021/05/07 04:58:29;;;;;;;17.40;12.77;;;;;;;;;;5032891;28;20659;-69
2021/05/07 05:00:54;;;;;;;15.20;11.80;;;;;;;;;;5043621;28;20185;-69
2021/05/07 05:03:19;;;;;;;16.23;11.67;;;;;;;;;;5028000;28;20319;-69
2021/05/07 05:05:45;;;;;;;17.53;11.77;;;;;;;;;;5030678;28;20207;-69
2021/05/07 05:08:10;;;;;;;19.67;12.20;;;;;;;;;;5037925;28;20491;-70
2021/05/07 05:10:35;;;;;;;16.63;12.17;;;;;;;;;;5027044;28;20466;-69
2021/05/07 05:13:01;;;;;;;15.80;11.77;;;;;;;;;;5035883;28;20181;-69
2021/05/07 05:15:26;;;;;;;18.87;12.10;;;;;;;;;;5031129;28;20228;-69
2021/05/07 05:17:52;;;;;;;15.87;10.97;;;;;;;;;;5034451;28;20182;-69
2021/05/07 05:20:17;;;;;;;14.77;10.67;;;;;;;;;;5028680;28;20178;-69
2021/05/07 05:22:43;;;;;;;14.77;10.63;;;;;;;;;;5034468;28;20589;-68
2021/05/07 05:25:09;;;;;;;14.33;10.73;;;;;;;;;;5027161;28;20189;-68
2021/05/07 05:27:35;;;;;;;16.13;10.37;;;;;;;;;;5035916;28;20209;-69
2021/05/07 05:30:03;;;;;;;16.20;10.17;;;;;;;;;;5028941;28;20193;-69
2021/05/07 05:32:28;;;;;;;16.53;9.50;;;;;;;;;;5038048;28;20205;-69
2021/05/07 05:34:53;;;;;;;11.63;8.47;;;;;;;;;;5029839;28;20174;-69
2021/05/07 05:37:20;;;;;;;11.43;8.67;;;;;;;;;;5032690;28;20228;-69
2021/05/07 05:39:45;;;;;;;13.67;8.80;;;;;;;;;;5029464;28;20174;-68
2021/05/07 05:42:11;;;;;;;10.50;8.17;;;;;;;;;;5019055;28;20229;-69
2021/05/07 05:44:37;;;;;;;12.57;8.90;;;;;;;;;;5028244;28;20860;-69
2021/05/07 05:47:02;;;;;;;11.23;8.63;;;;;;;;;;5025739;28;20203;-69
2021/05/07 05:49:28;;;;;;;10.33;8.83;;;;;;;;;;5028461;28;20184;-69
2021/05/07 05:51:53;;;;;;;14.43;9.40;;;;;;;;;;5023929;28;20185;-68
2021/05/07 05:54:18;;;;;;;13.10;9.00;;;;;;;;;;5036177;28;21320;-69
2021/05/07 05:56:45;;;;;;;12.03;8.30;;;;;;;;;;5029960;28;20186;-69
2021/05/07 05:59:10;;;;;;;12.03;8.53;;;;;;;;;;5034975;28;20186;-69
2021/05/07 06:01:36;;;;;;;11.03;7.90;;;;;;;;;;5029393;28;20259;-68
2021/05/07 06:04:01;;;;;;;11.03;8.60;;;;;;;;;;5034240;28;20280;-69
2021/05/07 06:06:26;;;;;;;9.77;7.47;;;;;;;;;;5031596;28;20182;-69
2021/05/07 06:08:52;;;;;;;8.17;6.40;;;;;;;;;;5028684;28;20186;-69
2021/05/07 06:11:17;;;;;;;10.03;6.90;;;;;;;;;;5036148;28;20190;-69
2021/05/07 06:13:43;;;;;;;11.07;6.90;;;;;;;;;;5031714;28;20216;-69
2021/05/07 06:16:08;;;;;;;8.97;6.40;;;;;;;;;;5039596;28;20627;-69
2021/05/07 06:18:33;;;;;;;8.30;6.67;;;;;;;;;;5034191;28;20294;-69
2021/05/07 06:20:59;;;;;;;9.57;7.50;;;;;;;;;;5043392;28;20185;-69
2021/05/07 06:23:24;;;;;;;10.20;7.10;;;;;;;;;;5026676;28;20620;-69
2021/05/07 06:25:50;;;;;;;11.23;6.80;;;;;;;;;;5034203;28;20661;-69
2021/05/07 06:28:16;;;;;;;10.27;7.33;;;;;;;;;;5026747;28;20432;-69
2021/05/07 06:30:41;;;;;;;9.40;5.53;;;;;;;;;;5037549;28;21718;-69
2021/05/07 06:33:06;;;;;;;8.83;5.70;;;;;;;;;;5024861;28;20194;-69
2021/05/07 06:35:32;;;;;;;8.43;5.57;;;;;;;;;;5039647;28;20517;-69
2021/05/07 06:37:59;;;;;;;7.37;5.17;;;;;;;;;;5031644;28;20190;-69
2021/05/07 06:40:24;;;;;;;8.20;5.57;;;;;;;;;;5036137;28;20225;-69
2021/05/07 06:42:50;;;;;;;5.80;4.90;;;;;;;;;;5041512;28;20571;-68
2021/05/07 06:45:16;;;;;;;9.27;5.07;;;;;;;;;;5036911;28;20231;-69
2021/05/07 06:47:41;;;;;;;7.10;5.23;;;;;;;;;;5039356;28;20540;-69
2021/05/07 06:50:08;;;;;;;6.73;4.60;;;;;;;;;;5029722;28;20202;-68
2021/05/07 06:52:33;;;;;;;7.03;5.00;;;;;;;;;;5036036;28;20261;-69
2021/05/07 06:55:00;;;;;;;7.83;4.67;;;;;;;;;;5037830;28;20360;-69
2021/05/07 06:57:25;;;;;;;5.97;4.70;;;;;;;;;;5042120;28;20189;-69
2021/05/07 06:59:52;;;;;;;5.30;4.70;;;;;;;;;;5030562;28;20185;-69
2021/05/07 07:02:17;;;;;;;6.83;3.83;;;;;;;;;;5036427;28;20205;-68
2021/05/07 07:04:45;;;;;;;5.03;3.97;;;;;;;;;;5037648;28;20191;-69
2021/05/07 07:07:11;;;;;;;6.53;3.50;;;;;;;;;;5039079;28;20178;-69
2021/05/07 07:09:36;;;;;;;7.10;3.67;;;;;;;;;;5034414;28;20581;-69
2021/05/07 07:12:02;;;;;;;8.07;3.80;;;;;;;;;;5043684;28;20182;-68
2021/05/07 07:14:27;;;;;;;4.40;3.70;;;;;;;;;;5040302;28;20629;-68
2021/05/07 07:16:52;;;;;;;3.67;3.37;;;;;;;;;;5034564;28;20185;-69
2021/05/07 07:19:18;;;;;;;4.57;3.43;;;;;;;;;;5042957;28;20200;-68
2021/05/07 07:21:43;;;;;;;9.50;4.27;;;;;;;;;;5032891;28;20194;-67
2021/05/07 07:24:09;;;;;;;7.47;4.07;;;;;;;;;;5041214;28;20219;-68
2021/05/07 07:26:34;;;;;;;5.82;3.90;;;;;;;;;;5033627;28;20283;-68
2021/05/07 07:28:59;;;;;;;5.27;4.43;;;;;;;;;;5035242;28;20174;-68
2021/05/07 07:31:25;;;;;;;5.82;4.40;;;;;;;;;;5029513;28;20181;-69
2021/05/07 07:33:50;;;;;;;7.20;4.40;;;;;;;;;;5034272;28;20205;-68
2021/05/07 07:36:16;;;;;;;8.13;4.63;;;;;;;;;;5032398;28;20205;-68
2021/05/07 07:38:41;;;;;;;5.97;4.33;;;;;;;;;;5038197;28;20264;-69
2021/05/07 07:41:07;;;;;;;5.22;3.92;;;;;;;;;;5030404;28;20238;-68
2021/05/07 07:43:33;;;;;;;2.57;2.33;;;;;;;;;;5036230;28;20197;-67
2021/05/07 07:45:58;;;;;;;6.73;2.90;;;;;;;;;;5033061;28;20204;-67
2021/05/07 07:48:24;;;;;;;3.43;3.00;;;;;;;;;;5025647;28;20182;-67
2021/05/07 07:50:49;;;;;;;5.83;3.50;;;;;;;;;;5033449;28;20181;-67
2021/05/07 07:53:14;;;;;;;5.13;3.43;;;;;;;;;;5026650;28;20181;-67
2021/05/07 07:55:40;;;;;;;3.83;3.10;;;;;;;;;;5036109;28;20268;-67
2021/05/07 07:58:05;;;;;;;5.03;3.90;;;;;;;;;;5025880;28;20196;-67
2021/05/07 08:00:32;;;;;;;6.93;4.47;;;;;;;;;;5039223;28;20198;-66
2021/05/07 08:02:57;;;;;;;6.40;4.70;;;;;;;;;;5026522;28;20244;-67
2021/05/07 08:05:23;;;;;;;5.90;4.40;;;;;;;;;;5035670;28;20194;-67
2021/05/07 08:07:49;;;;;;;4.87;3.63;;;;;;;;;;5030235;28;20190;-67
2021/05/07 08:10:17;;;;;;;3.60;3.10;;;;;;;;;;5035223;28;20235;-67
2021/05/07 08:12:42;;;;;;;2.70;2.50;;;;;;;;;;5026797;28;20181;-67
2021/05/07 08:15:09;;;;;;;2.80;2.53;;;;;;;;;;5039378;28;20186;-67
2021/05/07 08:17:34;;;;;;;3.63;2.57;;;;;;;;;;5037685;28;20177;-67
2021/05/07 08:20:00;;;;;;;3.50;2.80;;;;;;;;;;5027852;28;20206;-66
2021/05/07 08:22:25;;;;;;;8.00;3.40;;;;;;;;;;5035971;28;20272;-67
2021/05/07 08:24:51;;;;;;;8.77;4.03;;;;;;;;;;5027850;28;20320;-66
2021/05/07 08:27:16;;;;;;;4.63;3.80;;;;;;;;;;5033907;28;20190;-67
2021/05/07 08:29:41;;;;;;;3.78;2.88;;;;;;;;;;5028510;28;20186;-67
2021/05/07 08:32:07;;;;;;;3.83;2.78;;;;;;;;;;5032536;28;20276;-67
2021/05/07 08:34:32;;;;;;;3.10;2.72;;;;;;;;;;5021977;28;20193;-66
2021/05/07 08:36:58;;;;;;;3.38;2.80;;;;;;;;;;5035966;28;20220;-67
2021/05/07 08:39:23;;;;;;;4.72;3.35;;;;;;;;;;5028942;28;20383;-66
2021/05/07 08:41:49;;;;;;;5.32;3.22;;;;;;;;;;5035060;28;20233;-67
2021/05/07 08:44:19;;;;;;;6.80;2.97;;;;;;;;;;5031879;28;20826;-66
2021/05/07 08:46:45;;;;;;;3.40;2.80;;;;;;;;;;5036637;28;20539;-67
2021/05/07 08:49:14;;;;;;;3.78;2.70;;;;;;;;;;5037193;28;20183;-67
2021/05/07 08:51:40;;;;;;;6.70;3.00;;;;;;;;;;5026514;28;20185;-67
2021/05/07 08:54:09;;;;;;;4.28;3.33;;;;;;;;;;5038983;28;20184;-67
2021/05/07 08:56:35;;;;;;;6.68;3.42;;;;;;;;;;5032037;28;20202;-67
2021/05/07 08:59:01;;;;;;;4.70;2.95;;;;;;;;;;5041975;28;20197;-67
2021/05/07 09:01:39;;;;;;;7.88;4.25;;;;;;;;;;5034062;28;20231;-66
2021/05/07 09:04:09;;;;;;;4.28;3.00;;;;;;;;;;5042469;28;20681;-67
2021/05/07 09:06:49;;;;;;;5.40;3.10;;;;;;;;;;5032417;28;20712;-67
2021/05/07 09:09:27;;;;;;;5.25;2.63;;;;;;;;;;5037901;28;20219;-67
2021/05/07 09:11:55;;;;;;;4.32;2.40;;;;;;;;;;5031314;28;20320;-67
2021/05/07 09:14:21;;;;;;;4.60;2.70;;;;;;;;;;5036320;28;20711;-67
2021/05/07 09:16:54;;;;;;;4.03;2.80;;;;;;;;;;5033149;28;20272;-67
2021/05/07 09:19:21;;;;;;;3.67;2.58;;;;;;;;;;5031990;28;20189;-67
2021/05/07 09:21:47;;;;;;;3.33;2.45;;;;;;;;;;5030863;28;20211;-67
2021/05/07 09:24:12;;;;;;;4.75;2.40;;;;;;;;;;5036920;28;20241;-67
2021/05/07 09:26:50;;;;;;;3.20;1.90;;;;;;;;;;5029447;28;20203;-67
2021/05/07 09:29:24;;;;;;;5.22;2.17;;;;;;;;;;5047901;28;20464;-67
2021/05/07 09:31:51;;;;;;;5.20;2.20;;;;;;;;;;5035493;28;20874;-67
2021/05/07 09:34:21;;;;;;;4.18;2.00;;;;;;;;;;5042508;28;20210;-67
2021/05/07 09:36:48;;;;;;;2.10;1.48;;;;;;;;;;5036752;28;20197;-67
2021/05/07 09:39:26;;;;;;;3.67;1.73;;;;;;;;;;5047119;28;20554;-68
2021/05/07 09:41:53;;;;;;;4.10;1.67;;;;;;;;;;5042179;28;20308;-67
2021/05/07 09:44:22;;;;;;;5.53;1.60;;;;;;;;;;5039452;28;20286;-68
2021/05/07 09:46:49;;;;;;;3.15;1.50;;;;;;;;;;5043631;28;20193;-68
2021/05/07 09:49:29;;;;;;;2.70;1.98;;;;;;;;;;5044003;28;20657;-68
2021/05/07 09:51:55;;;;;;;3.70;1.58;;;;;;;;;;5044491;28;21560;-68
2021/05/07 09:54:21;;;;;;;1.85;1.60;;;;;;;;;;5035029;28;20231;-68
2021/05/07 09:56:47;;;;;;;4.03;1.70;;;;;;;;;;5031847;28;20189;-68
2021/05/07 09:59:14;;;;;;;2.72;1.58;;;;;;;;;;5037850;28;20196;-68
2021/05/07 10:01:43;;;;;;;2.05;1.60;;;;;;;;;;5044411;28;20602;-68
2021/05/07 10:04:11;;;;;;;3.92;2.03;;;;;;;;;;5040272;28;20217;-68
2021/05/07 10:06:36;;;;;;;3.00;1.45;;;;;;;;;;5045352;28;20606;-67
2021/05/07 10:09:02;;;;;;;3.08;1.60;;;;;;;;;;5040738;28;20235;-68
2021/05/07 10:11:35;;;;;;;5.03;1.92;;;;;;;;;;5043259;28;20185;-67
2021/05/07 10:14:06;;;;;;;5.00;1.80;;;;;;;;;;5034472;28;20173;-67
2021/05/07 10:16:32;;;;;;;3.55;1.77;;;;;;;;;;5045146;28;20198;-67
2021/05/07 10:19:05;;;;;;;5.00;1.77;;;;;;;;;;5038252;28;20441;-68
2021/05/07 10:21:41;;;;;;;4.03;1.70;;;;;;;;;;5040242;28;20625;-68
2021/05/07 10:24:11;;;;;;;3.65;1.52;;;;;;;;;;5041676;28;20197;-67
2021/05/07 10:26:39;;;;;;;3.33;1.33;;;;;;;;;;5037938;28;20636;-68
2021/05/07 10:29:27;;;;;;;3.42;1.35;;;;;;;;;;5044372;28;20181;-68
2021/05/07 10:31:55;;;;;;;3.63;1.50;;;;;;;;;;5033476;28;20185;-68
2021/05/07 10:34:25;;;;;;;4.03;1.40;;;;;;;;;;5043574;28;20600;-67
2021/05/07 10:36:56;;;;;;;3.78;1.48;;;;;;;;;;5032589;28;20186;-67
2021/05/07 10:39:29;;;;;;;3.55;1.38;;;;;;;;;;5044195;28;20346;-68
2021/05/07 10:41:59;;;;;;;3.13;1.30;;;;;;;;;;5033696;28;20230;-67
2021/05/07 10:44:28;;;;;;;3.00;1.30;;;;;;;;;;5044299;28;20256;-67
2021/05/07 10:47:11;;;;;;;3.70;1.50;;;;;;;;;;5034514;28;20637;-68
2021/05/07 10:49:39;;;;;;;2.20;1.30;;;;;;;;;;5043234;28;20189;-68
2021/05/07 10:52:08;;;;;;;3.15;1.20;;;;;;;;;;5028601;28;20190;-68
2021/05/07 10:54:46;;;;;;;4.07;1.27;;;;;;;;;;5043105;28;20186;-68
2021/05/07 10:57:19;;;;;;;2.00;0.85;;;;;;;;;;5038330;28;20193;-68
2021/05/07 11:00:02;;;;;;;1.90;1.02;;;;;;;;;;5040134;28;20185;-68
2021/05/07 11:02:28;;;;;;;1.05;0.65;;;;;;;;;;5037065;28;20204;-68
2021/05/07 11:04:54;;;;;;;2.40;0.40;;;;;;;;;;5042517;28;20186;-68
2021/05/07 11:07:29;;;;;;;1.90;0.40;;;;;;;;;;5033597;28;20192;-68
2021/05/07 11:10:08;;;;;;;1.95;0.60;;;;;;;;;;5045636;28;20316;-68
2021/05/07 11:12:37;;;;;;;1.73;0.88;;;;;;;;;;5031747;28;20205;-68
2021/05/07 11:15:04;;;;;;;3.22;1.25;;;;;;;;;;5043907;28;20276;-67
2021/05/07 11:17:29;;;;;;;2.97;1.10;;;;;;;;;;5040764;28;20189;-68
2021/05/07 11:19:55;;;;;;;2.83;0.80;;;;;;;;;;5042987;28;20181;-68
2021/05/07 11:22:26;;;;;;;0.77;0.55;;;;;;;;;;5032177;28;20181;-68
2021/05/07 11:24:52;;;;;;;0.82;0.60;;;;;;;;;;5041071;28;20213;-67
2021/05/07 11:27:28;;;;;;;0.50;0.40;;;;;;;;;;5037735;28;20543;-66
2021/05/07 11:30:04;;;;;;;0.82;0.60;;;;;;;;;;5044042;28;20572;-67
2021/05/07 11:32:30;;;;;;;2.20;0.47;;;;;;;;;;5042611;28;20185;-67
2021/05/07 11:35:07;;;;;;;4.88;1.25;;;;;;;;;;5036867;28;20220;-67
2021/05/07 11:37:32;;;;;;;1.13;0.57;;;;;;;;;;5033736;28;20193;-67
2021/05/07 11:39:59;;;;;;;1.85;0.63;;;;;;;;;;5030710;28;20383;-67
2021/05/07 11:42:33;;;;;;;0.95;0.65;;;;;;;;;;5040002;28;20224;-67
2021/05/07 11:44:59;;;;;;;0.90;0.68;;;;;;;;;;5034226;28;20189;-67
2021/05/07 11:47:29;;;;;;;1.42;0.63;;;;;;;;;;5034687;28;20189;-68
2021/05/07 11:49:55;;;;;;;0.88;0.80;;;;;;;;;;5032892;28;20640;-67
2021/05/07 11:52:37;;;;;;;1.10;0.55;;;;;;;;;;5043313;28;20177;-67
2021/05/07 11:55:07;;;;;;;1.85;0.90;;;;;;;;;;5028823;28;20198;-67
2021/05/07 11:57:34;;;;;;;0.73;0.40;;;;;;;;;;5035364;28;20189;-68
2021/05/07 12:00:00;;;;;;;1.13;0.60;;;;;;;;;;5034451;28;20188;-68
2021/05/07 12:02:31;;;;;;;1.67;0.55;;;;;;;;;;5040839;28;20228;-68
2021/05/07 12:04:57;;;;;;;4.47;0.88;;;;;;;;;;5037247;28;20201;-68
2021/05/07 12:07:33;;;;;;;1.30;0.90;;;;;;;;;;5040480;28;20175;-68
2021/05/07 12:10:00;;;;;;;2.30;0.80;;;;;;;;;;5030384;28;20527;-68
2021/05/07 12:12:28;;;;;;;1.17;0.80;;;;;;;;;;5038846;28;20185;-67
2021/05/07 12:15:11;;;;;;;2.60;0.93;;;;;;;;;;5039087;28;20186;-67
2021/05/07 12:17:42;;;;;;;1.95;0.70;;;;;;;;;;5038795;28;20186;-68
2021/05/07 12:20:09;;;;;;;2.83;0.70;;;;;;;;;;5036172;28;20182;-67
2021/05/07 12:22:35;;;;;;;1.80;0.77;;;;;;;;;;5042511;28;20254;-67
2021/05/07 12:25:24;;;;;;;1.98;0.85;;;;;;;;;;5040795;28;20648;-68
2021/05/07 12:27:51;;;;;;;1.85;0.63;;;;;;;;;;5041705;28;20192;-67
2021/05/07 12:30:25;;;;;;;0.95;0.60;;;;;;;;;;5036914;28;20216;-68
2021/05/07 12:33:08;;;;;;;1.52;0.70;;;;;;;;;;5030067;28;20667;-68
2021/05/07 12:35:35;;;;;;;1.98;1.00;;;;;;;;;;5040568;28;20189;-68
2021/05/07 12:38:22;;;;;;;1.92;0.70;;;;;;;;;;5033327;28;20196;-68
2021/05/07 12:40:47;;;;;;;2.58;0.90;;;;;;;;;;5037589;28;20325;-68
2021/05/07 12:43:13;;;;;;;3.22;0.90;;;;;;;;;;5039313;28;20690;-67
2021/05/07 12:45:38;;;;;;;3.28;1.10;;;;;;;;;;5037984;28;20185;-68
2021/05/07 12:48:05;;;;;;;2.47;0.88;;;;;;;;;;5039754;28;20185;-68
2021/05/07 12:50:31;;;;;;;2.58;0.90;;;;;;;;;;5038023;28;20197;-66
2021/05/07 12:52:56;;;;;;;1.40;0.80;;;;;;;;;;5033101;28;20188;-67
2021/05/07 12:55:22;;;;;;;1.50;0.80;;;;;;;;;;5040610;28;20182;-67
2021/05/07 12:57:47;;;;;;;1.30;0.80;;;;;;;;;;5030902;28;20285;-67
2021/05/07 13:00:14;;;;;;;2.38;0.98;;;;;;;;;;5042205;28;20191;-68
2021/05/07 13:02:39;;;;;;;3.05;1.00;;;;;;;;;;5034763;28;20645;-68
2021/05/07 13:05:05;;;;;;;3.45;0.93;;;;;;;;;;5037640;28;20182;-68
2021/05/07 13:07:31;;;;;;;2.65;1.05;;;;;;;;;;5029562;28;20716;-68
2021/05/07 13:09:57;;;;;;;4.40;0.90;;;;;;;;;;5036152;28;20325;-68
2021/05/07 13:12:22;;;;;;;2.25;0.90;;;;;;;;;;5036756;28;20184;-68
2021/05/07 13:14:48;;;;;;;1.63;0.88;;;;;;;;;;5033631;28;20193;-67
2021/05/07 13:17:17;;;;;;;1.98;0.75;;;;;;;;;;5038762;28;20177;-67
2021/05/07 13:19:43;;;;;;;1.33;0.90;;;;;;;;;;5031358;28;20193;-67
2021/05/07 13:22:09;;;;;;;1.42;1.00;;;;;;;;;;5039972;28;20187;-68
2021/05/07 13:24:35;;;;;;;1.45;1.30;;;;;;;;;;5035075;28;20292;-67
2021/05/07 13:27:00;;;;;;;2.03;0.95;;;;;;;;;;5044201;28;20181;-67
2021/05/07 13:29:25;;;;;;;2.50;1.10;;;;;;;;;;5034727;28;20228;-68
2021/05/07 13:31:51;;;;;;;3.70;1.27;;;;;;;;;;5039306;28;20261;-67
2021/05/07 13:34:18;;;;;;;1.75;0.98;;;;;;;;;;5032767;28;20273;-68
2021/05/07 13:36:43;;;;;;;4.55;1.38;;;;;;;;;;5043326;28;20192;-68
2021/05/07 13:39:09;;;;;;;2.00;1.13;;;;;;;;;;5041518;28;20194;-68
2021/05/07 13:41:34;;;;;;;1.35;1.25;;;;;;;;;;5026270;28;20225;-68
2021/05/07 13:43:59;;;;;;;3.85;1.45;;;;;;;;;;5040347;28;20223;-67
2021/05/07 13:46:25;;;;;;;3.35;1.52;;;;;;;;;;5030310;28;20182;-68
2021/05/07 13:48:50;;;;;;;2.60;1.42;;;;;;;;;;5040547;28;20189;-68
2021/05/07 13:51:16;;;;;;;2.22;1.45;;;;;;;;;;5030111;28;20197;-67
2021/05/07 13:53:41;;;;;;;3.33;1.50;;;;;;;;;;5038822;28;20277;-68
2021/05/07 13:56:07;;;;;;;3.42;1.30;;;;;;;;;;5036111;28;20548;-68
2021/05/07 13:58:32;;;;;;;4.00;1.58;;;;;;;;;;5043270;28;20559;-68
2021/05/07 14:00:57;;;;;;;3.83;1.63;;;;;;;;;;5031569;28;20201;-68
2021/05/07 14:03:23;;;;;;;1.65;1.20;;;;;;;;;;5042779;28;20691;-68
2021/05/07 14:05:48;;;;;;;3.78;1.50;;;;;;;;;;5033306;28;20185;-68
2021/05/07 14:08:13;;;;;;;3.20;1.30;;;;;;;;;;5039160;28;20217;-68
2021/05/07 14:10:39;;;;;;;2.58;1.52;;;;;;;;;;5035544;28;20269;-68
2021/05/07 14:13:04;;;;;;;3.30;1.40;;;;;;;;;;5037693;28;20191;-68
2021/05/07 14:15:30;;;;;;;3.88;1.85;;;;;;;;;;5038306;28;20177;-68
2021/05/07 14:17:56;;;;;;;6.20;1.38;;;;;;;;;;5034960;28;20189;-68
2021/05/07 14:20:22;;;;;;;3.08;1.67;;;;;;;;;;5034531;28;20190;-67
2021/05/07 14:22:47;;;;;;;2.58;1.70;;;;;;;;;;5040109;28;20193;-69
2021/05/07 14:25:12;;;;;;;2.30;1.42;;;;;;;;;;5036984;28;20232;-68
2021/05/07 14:27:38;;;;;;;1.80;1.45;;;;;;;;;;5035494;28;20201;-68
2021/05/07 14:30:04;;;;;;;2.92;1.60;;;;;;;;;;5040527;28;20194;-68
2021/05/07 14:32:30;;;;;;;6.18;1.70;;;;;;;;;;5043711;28;20195;-68